createdAt,value
2023-04-20T00:02:51.208Z,55.42
2023-04-20T00:07:54.642Z,55.57
2023-04-20T00:12:56.407Z,55.59
2023-04-20T00:17:58.365Z,55.63
2023-04-20T00:23:00.152Z,55.71
2023-04-20T00:28:01.937Z,55.79
2023-04-20T00:33:03.962Z,56.04
2023-04-20T00:38:06.026Z,55.69
2023-04-20T00:43:14.266Z,55.90
2023-04-20T00:48:16.075Z,55.55
2023-04-20T00:53:19.281Z,55.72
2023-04-20T00:58:21.628Z,55.42
2023-04-20T01:03:23.693Z,55.31
2023-04-20T01:08:27.543Z,55.45
2023-04-20T01:13:30.576Z,55.59
2023-04-20T01:18:47.375Z,55.28
2023-04-20T01:23:50.072Z,55.35
2023-04-20T01:28:52.036Z,55.37
2023-04-20T01:33:54.495Z,55.36
2023-04-20T01:38:56.551Z,55.22
2023-04-20T01:43:58.451Z,55.47
2023-04-20T01:49:00.292Z,55.23
2023-04-20T01:54:02.533Z,55.07
2023-04-20T01:59:04.376Z,55.77
2023-04-20T02:04:06.256Z,55.69
2023-04-20T02:09:09.429Z,55.63
2023-04-20T02:14:11.218Z,55.99
2023-04-20T02:19:13.075Z,55.80
2023-04-20T02:24:14.902Z,55.60
2023-04-20T02:29:17.002Z,56.01
2023-04-20T02:34:19.299Z,55.97
2023-04-20T02:39:21.382Z,55.95
2023-04-20T02:44:23.178Z,55.86
2023-04-20T02:49:25.355Z,56.13
2023-04-20T02:54:27.303Z,56.20
2023-04-20T02:59:29.197Z,56.23
2023-04-20T03:04:54.119Z,56.28
2023-04-20T03:09:57.077Z,56.05
2023-04-20T03:15:19.293Z,56.22
2023-04-20T03:20:41.462Z,56.09
2023-04-20T03:25:43.754Z,56.22
2023-04-20T03:30:53.207Z,56.30
2023-04-20T03:35:55.765Z,56.32
2023-04-20T03:40:57.661Z,56.53
2023-04-20T03:45:59.544Z,56.47
2023-04-20T03:51:01.579Z,56.66
2023-04-20T03:56:03.461Z,56.42
2023-04-20T04:01:09.993Z,56.63
2023-04-20T04:06:16.134Z,56.38
2023-04-20T04:11:18.009Z,56.31
2023-04-20T04:16:20.590Z,56.47
2023-04-20T04:21:23.544Z,56.37
2023-04-20T04:26:31.960Z,56.56
2023-04-20T04:31:35.369Z,56.77
2023-04-20T04:36:44.529Z,56.66
2023-04-20T04:41:49.017Z,56.64
2023-04-20T04:47:11.967Z,57.21
2023-04-20T04:52:13.978Z,57.08
2023-04-20T04:57:15.856Z,57.00
2023-04-20T05:02:17.977Z,57.14
2023-04-20T05:07:20.064Z,57.15
2023-04-20T05:12:21.920Z,57.36
2023-04-20T05:17:23.801Z,57.20
2023-04-20T05:22:25.757Z,57.40
2023-04-20T05:27:27.567Z,56.93
2023-04-20T05:32:29.476Z,57.28
2023-04-20T05:37:32.373Z,57.91
2023-04-20T05:42:34.128Z,58.30
2023-04-20T05:47:35.921Z,58.80
2023-04-20T05:52:38.181Z,58.23
2023-04-20T05:57:43.081Z,57.86
2023-04-20T06:02:45.732Z,58.10
2023-04-20T06:07:47.585Z,58.37
2023-04-20T06:12:49.472Z,58.08
2023-04-20T06:17:51.365Z,58.34
2023-04-20T06:22:53.596Z,58.33
2023-04-20T06:27:55.377Z,58.03
2023-04-20T06:32:57.265Z,58.09
2023-04-20T06:37:59.624Z,57.97
2023-04-20T06:43:01.505Z,57.77
2023-04-20T06:48:03.810Z,57.96
2023-04-20T06:53:05.860Z,57.86
2023-04-20T06:58:07.676Z,57.67
2023-04-20T07:03:09.653Z,57.91
2023-04-20T07:08:11.518Z,57.77
2023-04-20T07:13:13.291Z,57.87
2023-04-20T07:18:15.319Z,57.99
2023-04-20T07:23:17.121Z,57.87
2023-04-20T07:28:18.939Z,57.41
2023-04-20T07:33:21.235Z,57.49
2023-04-20T07:38:23.016Z,58.01
2023-04-20T07:43:24.867Z,57.61
2023-04-20T07:48:26.627Z,57.96
2023-04-20T07:53:31.466Z,58.16
2023-04-20T07:58:33.241Z,58.27
2023-04-20T08:03:35.864Z,58.09
2023-04-20T08:08:37.768Z,58.14
2023-04-20T08:13:40.110Z,58.14
2023-04-20T08:18:42.555Z,58.53
2023-04-20T08:23:44.576Z,58.63
2023-04-20T08:28:46.782Z,58.37
2023-04-20T08:33:48.562Z,58.60
2023-04-20T08:39:14.797Z,58.72
2023-04-20T08:44:16.799Z,58.75
2023-04-20T08:49:19.986Z,58.29
2023-04-20T08:54:23.615Z,58.29
2023-04-20T08:59:27.525Z,58.06
2023-04-20T09:04:29.567Z,57.86
2023-04-20T09:09:31.646Z,57.87
2023-04-20T09:14:46.993Z,58.08
2023-04-20T09:19:53.570Z,57.79
2023-04-20T09:24:55.361Z,57.52
2023-04-20T09:30:01.221Z,57.46
2023-04-20T09:35:03.034Z,57.81
2023-04-20T09:40:06.096Z,57.68
2023-04-20T09:45:08.968Z,57.97
2023-04-20T09:50:24.686Z,57.98
2023-04-20T09:55:32.310Z,57.40
2023-04-20T10:00:34.219Z,57.61
2023-04-20T10:05:36.927Z,57.68
2023-04-20T10:10:50.261Z,57.67
2023-04-20T10:15:52.088Z,57.24
2023-04-20T10:21:06.400Z,57.84
2023-04-20T10:26:08.205Z,57.76
2023-04-20T10:31:13.769Z,57.85
2023-04-20T10:36:27.668Z,58.22
2023-04-20T10:41:29.461Z,57.77
2023-04-20T10:46:31.580Z,57.81
2023-04-20T10:51:33.478Z,57.92
2023-04-20T10:57:03.218Z,57.43
2023-04-20T11:02:10.873Z,57.53
2023-04-20T11:07:15.269Z,57.80
2023-04-20T11:12:18.041Z,57.51
2023-04-20T11:17:20.304Z,58.02
2023-04-20T11:22:23.603Z,58.24
2023-04-20T11:27:25.378Z,58.12
2023-04-20T11:32:27.478Z,58.07
2023-04-20T11:37:29.730Z,58.45
2023-04-20T11:42:32.111Z,58.47
2023-04-20T11:47:34.101Z,58.63
2023-04-20T11:52:36.310Z,58.83
2023-04-20T11:57:38.152Z,58.39
2023-04-20T12:02:40.102Z,58.25
2023-04-20T12:07:41.980Z,58.28
2023-04-20T12:12:43.737Z,58.21
2023-04-20T12:17:45.620Z,58.41
2023-04-20T12:22:47.425Z,58.61
2023-04-20T12:27:49.980Z,58.16
2023-04-20T12:32:51.903Z,58.16
2023-04-20T12:37:53.710Z,58.49
2023-04-20T12:42:55.641Z,58.22
2023-04-20T12:48:00.255Z,58.21
2023-04-20T12:53:02.481Z,58.08
2023-04-20T12:58:04.332Z,58.08
2023-04-20T13:03:06.339Z,58.23
2023-04-20T13:08:08.232Z,58.21
2023-04-20T13:13:12.837Z,57.89
2023-04-20T13:18:15.560Z,58.28
2023-04-20T13:23:17.375Z,58.05
2023-04-20T13:28:19.406Z,58.28
2023-04-20T13:33:21.190Z,58.35
2023-04-20T13:38:23.038Z,57.90
2023-04-20T13:43:25.580Z,58.03
2023-04-20T13:48:27.341Z,57.98
2023-04-20T13:53:29.166Z,57.80
2023-04-20T13:58:31.075Z,57.63
2023-04-20T14:03:32.899Z,57.75
2023-04-20T14:08:34.744Z,57.48
2023-04-20T14:13:38.139Z,57.41
2023-04-20T14:18:41.119Z,57.52
2023-04-20T14:23:43.096Z,57.33
2023-04-20T14:28:45.936Z,57.42
2023-04-20T14:33:47.784Z,57.55
2023-04-20T14:38:49.652Z,57.64
2023-04-20T14:43:51.475Z,57.61
2023-04-20T14:48:53.350Z,57.23
2023-04-20T14:53:55.599Z,57.35
2023-04-20T14:58:59.620Z,57.19
2023-04-20T15:04:01.721Z,57.07
2023-04-20T15:09:03.765Z,57.02
2023-04-20T15:14:05.563Z,56.88
2023-04-20T15:19:07.514Z,57.02
2023-04-20T15:24:09.470Z,56.69
2023-04-20T15:29:11.261Z,56.81
2023-04-20T15:34:15.412Z,56.88
2023-04-20T15:39:17.443Z,57.09
2023-04-20T15:44:19.824Z,56.73
2023-04-20T15:49:22.033Z,56.87
2023-04-20T15:54:23.935Z,56.95
2023-04-20T15:59:25.833Z,57.00
2023-04-20T16:04:27.721Z,57.07
2023-04-20T16:09:29.620Z,57.04
2023-04-20T16:14:31.821Z,57.44
2023-04-20T16:19:34.620Z,57.28
2023-04-20T16:24:36.437Z,57.44
2023-04-20T16:29:38.562Z,57.30
2023-04-20T16:34:41.123Z,57.34
2023-04-20T16:39:43.950Z,57.35
2023-04-20T16:44:45.766Z,57.19
2023-04-20T16:49:47.673Z,57.65
2023-04-20T16:54:49.888Z,57.38
2023-04-20T16:59:51.969Z,57.38
2023-04-20T17:04:54.317Z,57.54
2023-04-20T17:09:56.467Z,57.43
2023-04-20T17:14:58.294Z,57.35
2023-04-20T17:20:00.215Z,57.45
2023-04-20T17:25:02.450Z,57.61
2023-04-20T17:30:05.420Z,57.96
2023-04-20T17:35:07.901Z,57.43
2023-04-20T17:40:10.318Z,57.46
2023-04-20T17:45:12.132Z,57.49
2023-04-20T17:50:16.323Z,57.56
2023-04-20T17:55:18.375Z,57.32
2023-04-20T18:00:20.679Z,57.39
2023-04-20T18:05:22.478Z,57.25
2023-04-20T18:10:24.270Z,57.44
2023-04-20T18:15:26.251Z,57.66
2023-04-20T18:20:29.450Z,57.17
2023-04-20T18:25:32.222Z,57.39
2023-04-20T18:30:34.089Z,57.15
2023-04-20T18:35:35.900Z,57.15
2023-04-20T18:40:37.910Z,57.36
2023-04-20T18:45:39.724Z,57.13
2023-04-20T18:50:41.619Z,57.00
2023-04-20T18:55:43.392Z,57.08
2023-04-20T19:00:45.396Z,57.29
2023-04-20T19:05:47.452Z,57.45
2023-04-20T19:10:49.451Z,57.05
2023-04-20T19:15:55.210Z,57.22
2023-04-20T19:20:57.070Z,57.36
2023-04-20T19:25:58.850Z,57.06
2023-04-20T19:31:00.884Z,57.11
2023-04-20T19:36:03.499Z,57.13
2023-04-20T19:41:06.433Z,56.81
2023-04-20T19:46:09.906Z,56.88
2023-04-20T19:51:12.290Z,57.08
2023-04-20T19:56:14.145Z,57.17
2023-04-20T20:01:15.982Z,57.11
2023-04-20T20:06:18.463Z,57.15
2023-04-20T20:11:22.110Z,57.39
2023-04-20T20:16:24.036Z,56.98
2023-04-20T20:21:25.945Z,56.90
2023-04-20T20:26:27.801Z,57.00
2023-04-20T20:31:29.621Z,56.96
2023-04-20T20:36:32.042Z,57.06
2023-04-20T20:41:34.409Z,57.08
2023-04-20T20:46:40.212Z,56.81
2023-04-20T20:51:42.942Z,56.86
2023-04-20T20:56:44.783Z,56.84
2023-04-20T21:01:46.752Z,56.71
2023-04-20T21:06:48.867Z,56.62
2023-04-20T21:11:50.745Z,56.63
2023-04-20T21:16:52.544Z,56.54
2023-04-20T21:21:54.357Z,56.34
2023-04-20T21:26:56.602Z,56.11
2023-04-20T21:31:58.392Z,56.30
2023-04-20T21:37:04.194Z,56.25
2023-04-20T21:42:06.089Z,56.13
2023-04-20T21:47:08.141Z,56.09
2023-04-20T21:52:10.006Z,55.78
2023-04-20T21:57:11.817Z,55.57
2023-04-20T22:02:13.669Z,55.98
2023-04-20T22:07:17.772Z,56.01
2023-04-20T22:12:32.273Z,56.01
2023-04-20T22:17:38.573Z,56.43
2023-04-20T22:22:40.899Z,56.37
2023-04-20T22:27:43.104Z,56.43
2023-04-20T22:32:44.923Z,56.39
2023-04-20T22:37:46.706Z,56.61
2023-04-20T22:42:48.707Z,56.73
2023-04-20T22:47:50.678Z,57.13
2023-04-20T22:52:52.550Z,56.68
2023-04-20T22:57:54.472Z,56.57
2023-04-20T23:02:56.404Z,56.69
2023-04-20T23:08:00.539Z,57.10
2023-04-20T23:13:02.316Z,57.16
2023-04-20T23:18:05.773Z,56.98
2023-04-20T23:23:07.734Z,56.70
2023-04-20T23:28:09.696Z,56.60
2023-04-20T23:33:11.509Z,56.52
2023-04-20T23:38:13.412Z,56.51
2023-04-20T23:43:15.250Z,56.55
2023-04-20T23:48:17.129Z,56.40
2023-04-20T23:53:18.909Z,57.05
2023-04-20T23:58:25.791Z,57.30
